createdAt,value
2017-09-19T00:00:10.792Z,0
2017-09-19T00:01:10.168Z,0
2017-09-19T00:02:10.064Z,0
2017-09-19T00:03:10.365Z,0
2017-09-19T00:04:10.146Z,0
2017-09-19T00:05:10.355Z,0
2017-09-19T00:06:10.677Z,0
2017-09-19T00:07:10.034Z,0
2017-09-19T00:08:10.435Z,0
2017-09-19T00:09:10.749Z,0
2017-09-19T00:10:10.110Z,0
2017-09-19T00:11:10.316Z,0
2017-09-19T00:12:10.096Z,0
2017-09-19T00:13:10.725Z,0
2017-09-19T00:14:10.612Z,0
2017-09-19T00:15:09.769Z,0
2017-09-19T00:16:10.640Z,0
2017-09-19T00:17:10.280Z,0
2017-09-19T00:18:10.697Z,0
2017-09-19T00:19:10.586Z,0
2017-09-19T00:20:10.262Z,0
2017-09-19T00:21:10.050Z,0
2017-09-19T00:22:09.940Z,0
2017-09-19T00:23:10.246Z,0
2017-09-19T00:24:10.245Z,0
2017-09-19T00:25:09.609Z,0
2017-09-19T00:26:09.912Z,0
2017-09-19T00:27:10.221Z,0
2017-09-19T00:28:09.901Z,0
2017-09-19T00:29:10.215Z,0
2017-09-19T00:30:10.207Z,0
2017-09-19T00:31:10.202Z,0
2017-09-19T00:32:09.978Z,0
2017-09-19T00:33:10.287Z,0
2017-09-19T00:34:09.970Z,0
2017-09-19T00:35:09.863Z,0
2017-09-19T00:36:10.168Z,0
2017-09-19T00:37:10.265Z,0
2017-09-19T00:38:10.480Z,0
2017-09-19T00:39:09.527Z,0
2017-09-19T00:40:10.147Z,0
2017-09-19T00:41:09.825Z,0
2017-09-19T00:42:09.841Z,0
2017-09-19T00:43:10.233Z,0
2017-09-19T00:44:09.906Z,0
2017-09-19T00:45:10.124Z,0
2017-09-19T00:46:09.898Z,0
2017-09-19T00:47:10.112Z,0
2017-09-19T00:48:10.100Z,0
2017-09-19T00:49:10.608Z,0
2017-09-19T00:50:09.879Z,0
2017-09-19T00:51:09.769Z,0
2017-09-19T00:52:09.764Z,0
2017-09-19T00:53:09.756Z,0
2017-09-19T00:54:10.067Z,0
2017-09-19T00:55:10.168Z,0
2017-09-19T00:56:09.524Z,0
2017-09-19T00:57:10.046Z,0
2017-09-19T00:58:10.042Z,0
2017-09-19T00:59:10.141Z,0
2017-09-19T01:00:10.453Z,0
2017-09-19T01:01:10.024Z,0
2017-09-19T01:02:10.320Z,0
2017-09-19T01:03:09.702Z,0
2017-09-19T01:04:09.722Z,0
2017-09-19T01:05:09.371Z,0
2017-09-19T01:06:09.992Z,0
2017-09-19T01:07:09.773Z,0
2017-09-19T01:08:09.672Z,0
2017-09-19T01:09:09.662Z,0
2017-09-19T01:10:09.688Z,0
2017-09-19T01:11:09.968Z,0
2017-09-19T01:12:09.644Z,0
2017-09-19T01:13:10.265Z,0
2017-09-19T01:14:09.948Z,0
2017-09-19T01:15:10.258Z,0
2017-09-19T01:16:09.941Z,0
2017-09-19T01:17:09.718Z,0
2017-09-19T01:18:09.610Z,0
2017-09-19T01:19:09.918Z,0
2017-09-19T01:20:10.324Z,0
2017-09-19T01:21:09.902Z,0
2017-09-19T01:22:10.466Z,0
2017-09-19T01:23:09.583Z,0
2017-09-19T01:24:09.575Z,0
2017-09-19T01:25:10.028Z,0
2017-09-19T01:26:10.187Z,0
2017-09-19T01:27:09.966Z,0
2017-09-19T01:28:09.550Z,0
2017-09-19T01:29:09.964Z,0
2017-09-19T01:30:09.324Z,0
2017-09-19T01:31:09.532Z,0
2017-09-19T01:32:09.729Z,0
2017-09-19T01:33:09.523Z,0
2017-09-19T01:34:09.516Z,0
2017-09-19T01:35:09.197Z,0
2017-09-19T01:36:10.136Z,0
2017-09-19T01:37:09.806Z,0
2017-09-19T01:38:09.175Z,0
2017-09-19T01:39:10.112Z,0
2017-09-19T01:40:09.991Z,0
2017-09-19T01:41:09.625Z,0
2017-09-19T01:42:09.776Z,0
2017-09-19T01:43:09.565Z,0
2017-09-19T01:44:09.145Z,0
2017-09-19T01:45:09.554Z,0
2017-09-19T01:46:09.461Z,0
2017-09-19T01:47:10.064Z,0
2017-09-19T01:48:09.742Z,0
2017-09-19T01:49:10.156Z,0
2017-09-19T01:50:09.520Z,0
2017-09-19T01:51:10.040Z,0
2017-09-19T01:52:09.722Z,0
2017-09-19T01:53:09.090Z,0
2017-09-19T01:54:09.710Z,0
2017-09-19T01:55:09.813Z,0
2017-09-19T01:56:09.387Z,0
2017-09-19T01:57:09.378Z,0
2017-09-19T01:58:09.473Z,0
2017-09-19T01:59:09.366Z,0
2017-09-19T02:00:09.993Z,0
2017-09-19T02:01:09.669Z,0
2017-09-19T02:02:09.702Z,0
2017-09-19T02:03:09.131Z,0
2017-09-19T02:04:09.647Z,0
2017-09-19T02:05:09.648Z,0
2017-09-19T02:06:09.957Z,0
2017-09-19T02:07:09.319Z,0
2017-09-19T02:08:09.101Z,0
2017-09-19T02:09:08.994Z,0
2017-09-19T02:10:09.302Z,0
2017-09-19T02:11:09.300Z,0
2017-09-19T02:12:08.975Z,0
2017-09-19T02:13:09.384Z,0
2017-09-19T02:14:09.699Z,0
2017-09-19T02:15:09.899Z,0
2017-09-19T02:16:09.581Z,0
2017-09-19T02:17:09.577Z,0
2017-09-19T02:18:09.665Z,0
2017-09-19T02:19:09.400Z,0
2017-09-19T02:20:09.877Z,0
2017-09-19T02:21:09.237Z,0
2017-09-19T02:22:09.861Z,0
2017-09-19T02:23:09.543Z,0
2017-09-19T02:24:08.905Z,0
2017-09-19T02:25:09.313Z,0
2017-09-19T02:26:09.672Z,0
2017-09-19T02:27:09.519Z,0
2017-09-19T02:28:09.508Z,0
2017-09-19T02:29:09.603Z,0
2017-09-19T02:30:09.185Z,0
2017-09-19T02:31:09.174Z,0
2017-09-19T02:32:09.484Z,0
2017-09-19T02:33:09.164Z,0
2017-09-19T02:34:09.157Z,0
2017-09-19T02:35:09.149Z,0
2017-09-19T02:36:09.146Z,0
2017-09-19T02:37:09.138Z,0
2017-09-19T02:38:09.870Z,0
2017-09-19T02:39:09.443Z,0
2017-09-19T02:40:08.810Z,0
2017-09-19T02:41:09.532Z,0
2017-09-19T02:42:09.430Z,0
2017-09-19T02:43:09.108Z,0
2017-09-19T02:44:09.510Z,0
2017-09-19T02:45:09.514Z,0
2017-09-19T02:46:09.233Z,0
2017-09-19T02:47:09.717Z,0
2017-09-19T02:48:09.602Z,0
2017-09-19T02:49:09.485Z,0
2017-09-19T02:50:09.063Z,0
2017-09-19T02:51:09.056Z,0
2017-09-19T02:52:09.683Z,0
2017-09-19T02:53:09.359Z,0
2017-09-19T02:54:09.458Z,0
2017-09-19T02:55:08.820Z,0
2017-09-19T02:56:09.035Z,0
2017-09-19T02:57:09.347Z,0
2017-09-19T02:58:08.706Z,0
2017-09-19T02:59:09.009Z,0
2017-09-19T03:00:09.318Z,0
2017-09-19T03:01:09.309Z,0
2017-09-19T03:02:08.677Z,0
2017-09-19T03:03:08.986Z,0
2017-09-19T03:04:09.393Z,0
2017-09-19T03:05:09.600Z,0
2017-09-19T03:06:08.970Z,0
2017-09-19T03:07:09.273Z,0
2017-09-19T03:08:09.469Z,0
2017-09-19T03:09:09.359Z,0
2017-09-19T03:10:09.260Z,0
2017-09-19T03:11:08.941Z,0
2017-09-19T03:12:08.928Z,0
2017-09-19T03:13:09.063Z,0
2017-09-19T03:14:09.022Z,0
2017-09-19T03:15:09.228Z,0
2017-09-19T03:16:09.225Z,0
2017-09-19T03:17:08.688Z,0
2017-09-19T03:18:08.996Z,0
2017-09-19T03:19:09.201Z,0
2017-09-19T03:20:08.880Z,0
2017-09-19T03:21:08.881Z,0
2017-09-19T03:22:08.556Z,0
2017-09-19T03:23:09.278Z,0
2017-09-19T03:24:09.181Z,0
2017-09-19T03:25:08.853Z,0
2017-09-19T03:26:08.957Z,0
2017-09-19T03:27:09.152Z,0
2017-09-19T03:28:09.556Z,0
2017-09-19T03:29:09.148Z,0
2017-09-19T03:30:08.925Z,0
2017-09-19T03:31:09.451Z,0
2017-09-19T03:32:08.810Z,0
2017-09-19T03:33:08.594Z,0
2017-09-19T03:34:08.483Z,0
2017-09-19T03:35:09.115Z,0
2017-09-19T03:36:08.678Z,0
2017-09-19T03:37:09.191Z,0
2017-09-19T03:38:08.777Z,0
2017-09-19T03:39:08.767Z,0
2017-09-19T03:40:08.448Z,0
2017-09-19T03:41:09.168Z,0
2017-09-19T03:42:08.752Z,0
2017-09-19T03:43:08.848Z,0
2017-09-19T03:44:08.739Z,0
2017-09-19T03:45:08.731Z,0
2017-09-19T03:46:08.836Z,0
2017-09-19T03:47:08.830Z,0
2017-09-19T03:48:08.814Z,0
2017-09-19T03:49:09.033Z,0
2017-09-19T03:50:08.700Z,0
2017-09-19T03:51:09.326Z,0
2017-09-19T03:52:08.689Z,0
2017-09-19T03:53:09.340Z,0
2017-09-19T03:54:08.780Z,0
2017-09-19T03:55:08.989Z,0
2017-09-19T03:56:08.766Z,0
2017-09-19T03:57:08.978Z,0
2017-09-19T03:58:08.439Z,0
2017-09-19T03:59:08.652Z,0
2017-09-19T04:00:08.654Z,0
2017-09-19T04:01:08.321Z,0
2017-09-19T04:02:08.947Z,0
2017-09-19T04:03:09.035Z,0
2017-09-19T04:04:08.617Z,0
2017-09-19T04:05:09.253Z,0
2017-09-19T04:06:08.916Z,0
2017-09-19T04:07:08.920Z,0
2017-09-19T04:08:08.696Z,0
2017-09-19T04:09:08.997Z,0
2017-09-19T04:10:09.208Z,0
2017-09-19T04:11:08.577Z,0
2017-09-19T04:12:08.983Z,0
2017-09-19T04:13:08.877Z,0
2017-09-19T04:14:08.658Z,0
2017-09-19T04:15:09.173Z,0
2017-09-19T04:16:08.956Z,0
2017-09-19T04:17:09.167Z,0
2017-09-19T04:18:08.220Z,0
2017-09-19T04:19:08.636Z,0
2017-09-19T04:20:09.145Z,0
2017-09-19T04:21:08.941Z,0
2017-09-19T04:22:08.296Z,0
2017-09-19T04:23:08.813Z,0
2017-09-19T04:24:08.497Z,0
2017-09-19T04:25:08.912Z,0
2017-09-19T04:26:08.272Z,0
2017-09-19T04:27:08.479Z,0
2017-09-19T04:28:08.473Z,0
2017-09-19T04:29:08.780Z,0
2017-09-19T04:30:08.775Z,0
2017-09-19T04:31:09.179Z,0
2017-09-19T04:32:09.080Z,0
2017-09-19T04:33:08.439Z,0
2017-09-19T04:34:09.160Z,0
2017-09-19T04:35:08.746Z,0
2017-09-19T04:36:08.524Z,0
2017-09-19T04:37:08.104Z,0
2017-09-19T04:38:09.057Z,0
2017-09-19T04:39:08.723Z,0
2017-09-19T04:40:08.714Z,0
2017-09-19T04:41:08.903Z,0
2017-09-19T04:42:08.075Z,0
2017-09-19T04:43:08.379Z,0
2017-09-19T04:44:09.105Z,0
2017-09-19T04:45:08.367Z,0
2017-09-19T04:46:08.049Z,0
2017-09-19T04:47:08.982Z,0
2017-09-19T04:48:08.662Z,0
2017-09-19T04:49:08.657Z,0
2017-09-19T04:50:08.351Z,0
2017-09-19T04:51:08.642Z,0
2017-09-19T04:52:08.739Z,0
2017-09-19T04:53:08.743Z,0
2017-09-19T04:54:07.996Z,0
2017-09-19T04:55:08.933Z,0
2017-09-19T04:56:08.617Z,0
2017-09-19T04:57:07.979Z,0
2017-09-19T04:58:08.294Z,0
2017-09-19T04:59:08.696Z,4
2017-09-19T05:00:08.591Z,4
2017-09-19T05:01:08.587Z,4
2017-09-19T05:02:08.267Z,0
2017-09-19T05:03:07.948Z,0
2017-09-19T05:04:08.138Z,4
2017-09-19T05:05:08.348Z,4
2017-09-19T05:06:08.239Z,4
2017-09-19T05:07:08.550Z,8
2017-09-19T05:08:08.232Z,4
2017-09-19T05:09:08.636Z,4
2017-09-19T05:10:08.547Z,8
2017-09-19T05:11:08.521Z,4
2017-09-19T05:12:07.887Z,8
2017-09-19T05:13:08.833Z,8
2017-09-19T05:14:08.192Z,8
2017-09-19T05:15:08.705Z,12
2017-09-19T05:16:08.912Z,8
2017-09-19T05:17:08.172Z,12
2017-09-19T05:18:08.480Z,12
2017-09-19T05:19:08.471Z,16
2017-09-19T05:20:08.883Z,16
2017-09-19T05:21:08.565Z,16
2017-09-19T05:22:08.140Z,16
2017-09-19T05:23:08.600Z,20
2017-09-19T05:24:08.446Z,16
2017-09-19T05:25:08.540Z,20
2017-09-19T05:26:08.125Z,20
2017-09-19T05:27:08.108Z,24
2017-09-19T05:28:08.110Z,28
2017-09-19T05:29:08.545Z,24
2017-09-19T05:30:08.193Z,28
2017-09-19T05:31:08.405Z,32
2017-09-19T05:32:08.396Z,32
2017-09-19T05:33:08.700Z,36
2017-09-19T05:34:07.758Z,36
2017-09-19T05:35:08.373Z,40
2017-09-19T05:36:08.367Z,40
2017-09-19T05:37:07.840Z,44
2017-09-19T05:38:07.830Z,44
2017-09-19T05:39:08.038Z,48
2017-09-19T05:40:08.347Z,48
2017-09-19T05:41:08.130Z,52
2017-09-19T05:42:08.118Z,56
2017-09-19T05:43:08.647Z,56
2017-09-19T05:44:08.326Z,60
2017-09-19T05:45:08.009Z,64
2017-09-19T05:46:08.622Z,68
2017-09-19T05:47:08.817Z,72
2017-09-19T05:48:08.093Z,76
2017-09-19T05:49:07.666Z,84
2017-09-19T05:50:08.406Z,88
2017-09-19T05:51:08.277Z,96
2017-09-19T05:52:08.743Z,96
2017-09-19T05:53:08.053Z,96
2017-09-19T05:54:07.954Z,100
2017-09-19T05:55:08.667Z,100
2017-09-19T05:56:08.249Z,108
2017-09-19T05:57:08.561Z,116
2017-09-19T05:58:07.922Z,120
2017-09-19T05:59:07.917Z,124
2017-09-19T06:00:08.157Z,124
2017-09-19T06:01:08.530Z,128
2017-09-19T06:02:07.884Z,124
2017-09-19T06:03:08.014Z,128
2017-09-19T06:04:07.869Z,128
2017-09-19T06:05:08.488Z,128
2017-09-19T06:06:07.547Z,132
2017-09-19T06:07:08.266Z,136
2017-09-19T06:08:07.847Z,136
2017-09-19T06:09:08.461Z,136
2017-09-19T06:10:08.250Z,136
2017-09-19T06:11:07.831Z,136
2017-09-19T06:12:08.447Z,140
2017-09-19T06:13:08.593Z,136
2017-09-19T06:14:07.601Z,132
2017-09-19T06:15:07.807Z,128
2017-09-19T06:16:07.805Z,128
2017-09-19T06:17:08.420Z,128
2017-09-19T06:18:07.787Z,124
2017-09-19T06:19:08.098Z,120
2017-09-19T06:20:08.184Z,120
2017-09-19T06:21:07.770Z,124
2017-09-19T06:22:08.427Z,128
2017-09-19T06:23:08.387Z,128
2017-09-19T06:24:08.162Z,132
2017-09-19T06:25:07.848Z,136
2017-09-19T06:26:08.045Z,136
2017-09-19T06:27:07.885Z,136
2017-09-19T06:28:08.037Z,144
2017-09-19T06:29:07.818Z,152
2017-09-19T06:30:08.339Z,172
2017-09-19T06:31:07.809Z,196
2017-09-19T06:32:08.112Z,212
2017-09-19T06:33:08.322Z,220
2017-09-19T06:34:08.006Z,236
2017-09-19T06:35:08.307Z,248
2017-09-19T06:36:07.677Z,256
2017-09-19T06:37:07.671Z,252
2017-09-19T06:38:07.984Z,244
2017-09-19T06:39:07.660Z,252
2017-09-19T06:40:07.963Z,256
2017-09-19T06:41:07.335Z,268
2017-09-19T06:42:07.642Z,268
2017-09-19T06:43:07.943Z,268
2017-09-19T06:44:07.938Z,256
2017-09-19T06:45:07.620Z,264
2017-09-19T06:46:07.613Z,288
2017-09-19T06:47:08.021Z,284
2017-09-19T06:48:07.605Z,264
2017-09-19T06:49:07.595Z,252
2017-09-19T06:50:07.383Z,244
2017-09-19T06:51:07.901Z,248
2017-09-19T06:52:07.271Z,260
2017-09-19T06:53:07.889Z,268
2017-09-19T06:54:07.888Z,272
2017-09-19T06:55:07.251Z,280
2017-09-19T06:56:07.242Z,288
2017-09-19T06:57:07.548Z,304
2017-09-19T06:58:07.855Z,328
2017-09-19T06:59:07.947Z,332
2017-09-19T07:00:07.527Z,336
2017-09-19T07:01:07.935Z,336
2017-09-19T07:02:08.138Z,340
2017-09-19T07:03:07.511Z,356
2017-09-19T07:04:07.923Z,392
2017-09-19T07:05:07.498Z,420
2017-09-19T07:06:07.600Z,440
2017-09-19T07:07:07.896Z,444
2017-09-19T07:08:07.482Z,440
2017-09-19T07:09:07.475Z,440
2017-09-19T07:10:07.159Z,428
2017-09-19T07:11:07.928Z,408
2017-09-19T07:12:08.280Z,400
2017-09-19T07:13:07.767Z,400
2017-09-19T07:14:08.176Z,408
2017-09-19T07:15:07.752Z,428
2017-09-19T07:16:07.435Z,452
2017-09-19T07:17:08.150Z,452
2017-09-19T07:18:07.837Z,448
2017-09-19T07:19:07.930Z,452
2017-09-19T07:20:07.508Z,448
2017-09-19T07:21:07.091Z,448
2017-09-19T07:22:07.084Z,444
2017-09-19T07:23:07.395Z,436
2017-09-19T07:24:07.796Z,428
2017-09-19T07:25:07.385Z,428
2017-09-19T07:26:07.376Z,416
2017-09-19T07:27:07.053Z,416
2017-09-19T07:28:07.360Z,428
2017-09-19T07:29:07.768Z,440
2017-09-19T07:30:07.345Z,436
2017-09-19T07:31:07.655Z,416
2017-09-19T07:32:07.437Z,400
2017-09-19T07:33:07.119Z,376
2017-09-19T07:34:07.424Z,368
2017-09-19T07:35:07.314Z,360
2017-09-19T07:36:07.729Z,364
2017-09-19T07:37:08.031Z,372
2017-09-19T07:38:07.395Z,380
2017-09-19T07:39:07.294Z,388
2017-09-19T07:40:07.917Z,416
2017-09-19T07:41:07.070Z,436
2017-09-19T07:42:07.372Z,444
2017-09-19T07:43:06.955Z,444
2017-09-19T07:44:07.363Z,456
2017-09-19T07:45:07.665Z,460
2017-09-19T07:46:07.253Z,468
2017-09-19T07:47:07.281Z,476
2017-09-19T07:48:07.237Z,484
2017-09-19T07:49:07.549Z,496
2017-09-19T07:50:07.572Z,504
2017-09-19T07:51:07.320Z,500
2017-09-19T07:52:06.905Z,484
2017-09-19T07:53:06.896Z,468
2017-09-19T07:54:07.513Z,460
2017-09-19T07:55:07.298Z,460
2017-09-19T07:56:07.191Z,456
2017-09-19T07:57:07.496Z,444
2017-09-19T07:58:07.278Z,420
2017-09-19T07:59:07.482Z,388
2017-09-19T08:00:07.276Z,364
2017-09-19T08:01:06.849Z,356
2017-09-19T08:02:07.152Z,360
2017-09-19T08:03:07.460Z,372
2017-09-19T08:04:07.143Z,404
2017-09-19T08:05:07.233Z,424
2017-09-19T08:06:07.130Z,424
2017-09-19T08:07:07.440Z,412
2017-09-19T08:08:07.117Z,408
2017-09-19T08:09:07.524Z,408
2017-09-19T08:10:07.521Z,416
2017-09-19T08:11:07.205Z,428
2017-09-19T08:12:07.096Z,440
2017-09-19T08:13:06.775Z,456
2017-09-19T08:14:07.852Z,468
2017-09-19T08:15:07.385Z,468
2017-09-19T08:16:07.171Z,464
2017-09-19T08:17:07.370Z,456
2017-09-19T08:18:07.472Z,448
2017-09-19T08:19:07.366Z,440
2017-09-19T08:20:07.047Z,436
2017-09-19T08:21:07.352Z,436
2017-09-19T08:22:07.444Z,452
2017-09-19T08:23:07.028Z,476
2017-09-19T08:24:07.118Z,496
2017-09-19T08:25:06.802Z,524
2017-09-19T08:26:07.007Z,560
2017-09-19T08:27:07.004Z,596
2017-09-19T08:28:06.994Z,636
2017-09-19T08:29:06.992Z,640
2017-09-19T08:30:07.084Z,612
2017-09-19T08:31:06.665Z,580
2017-09-19T08:32:07.596Z,528
2017-09-19T08:33:07.275Z,520
2017-09-19T08:34:07.287Z,540
2017-09-19T08:35:07.574Z,560
2017-09-19T08:36:06.632Z,600
2017-09-19T08:37:07.282Z,652
2017-09-19T08:38:06.722Z,712
2017-09-19T08:39:07.337Z,756
2017-09-19T08:40:07.023Z,792
2017-09-19T08:41:06.604Z,808
2017-09-19T08:42:07.220Z,796
2017-09-19T08:43:07.003Z,784
2017-09-19T08:44:06.898Z,780
2017-09-19T08:45:06.680Z,772
2017-09-19T08:46:07.212Z,780
2017-09-19T08:47:07.195Z,796
2017-09-19T08:48:07.499Z,820
2017-09-19T08:49:06.871Z,836
2017-09-19T08:50:07.175Z,836
2017-09-19T08:51:06.857Z,836
2017-09-19T08:52:06.637Z,840
2017-09-19T08:53:06.844Z,836
2017-09-19T08:54:06.521Z,848
2017-09-19T08:55:07.145Z,844
2017-09-19T08:56:07.137Z,824
2017-09-19T08:57:07.231Z,804
2017-09-19T08:58:07.437Z,832
2017-09-19T08:59:07.533Z,796
2017-09-19T09:00:06.900Z,832
2017-09-19T09:01:06.793Z,820
2017-09-19T09:02:06.786Z,792
2017-09-19T09:03:07.299Z,796
2017-09-19T09:04:06.776Z,768
2017-09-19T09:05:06.768Z,748
2017-09-19T09:06:07.071Z,720
2017-09-19T09:07:06.756Z,660
2017-09-19T09:08:06.752Z,664
2017-09-19T09:09:06.430Z,668
2017-09-19T09:10:06.740Z,640
2017-09-19T09:11:06.417Z,640
2017-09-19T09:12:06.415Z,628
2017-09-19T09:13:07.026Z,624
2017-09-19T09:14:07.023Z,624
2017-09-19T09:15:06.810Z,628
2017-09-19T09:16:07.178Z,652
2017-09-19T09:17:07.322Z,664
2017-09-19T09:18:07.099Z,664
2017-09-19T09:19:06.991Z,676
2017-09-19T09:20:06.675Z,684
2017-09-19T09:21:07.099Z,676
2017-09-19T09:22:06.352Z,700
2017-09-19T09:23:06.760Z,708
2017-09-19T09:24:06.853Z,712
2017-09-19T09:25:06.647Z,716
2017-09-19T09:26:06.325Z,728
2017-09-19T09:27:07.258Z,720
2017-09-19T09:28:06.823Z,740
2017-09-19T09:29:07.246Z,748
2017-09-19T09:30:06.934Z,788
2017-09-19T09:31:06.611Z,812
2017-09-19T09:32:06.601Z,868
2017-09-19T09:33:06.594Z,904
2017-09-19T09:34:06.695Z,920
2017-09-19T09:35:07.001Z,948
2017-09-19T09:36:06.590Z,996
2017-09-19T09:37:06.575Z,1028
2017-09-19T09:38:06.669Z,1056
2017-09-19T09:39:07.186Z,1048
2017-09-19T09:40:07.280Z,1064
2017-09-19T09:41:06.869Z,1124
2017-09-19T09:42:06.543Z,1112
2017-09-19T09:43:07.159Z,1124
2017-09-19T09:44:06.536Z,1136
2017-09-19T09:45:06.942Z,1096
2017-09-19T09:46:07.151Z,1088
2017-09-19T09:47:06.510Z,1108
2017-09-19T09:48:06.508Z,1088
2017-09-19T09:49:06.817Z,1024
2017-09-19T09:50:07.124Z,936
2017-09-19T09:51:07.123Z,1008
2017-09-19T09:52:07.209Z,968
2017-09-19T09:53:06.167Z,936
2017-09-19T09:54:07.100Z,936
2017-09-19T09:55:06.882Z,976
2017-09-19T09:56:06.869Z,1024
2017-09-19T09:57:06.877Z,1088
2017-09-19T09:58:06.758Z,1232
2017-09-19T09:59:06.760Z,1220
2017-09-19T10:00:07.069Z,1184
2017-09-19T10:01:07.149Z,1160
2017-09-19T10:02:07.161Z,1212
2017-09-19T10:03:06.729Z,1340
2017-09-19T10:04:07.043Z,1340
2017-09-19T10:05:06.718Z,1168
2017-09-19T10:06:07.027Z,1244
2017-09-19T10:07:06.504Z,1280
2017-09-19T10:08:06.394Z,1148
2017-09-19T10:09:06.073Z,1072
2017-09-19T10:10:06.377Z,1176
2017-09-19T10:11:06.792Z,1224
2017-09-19T10:12:06.682Z,1248
2017-09-19T10:13:06.460Z,1220
2017-09-19T10:14:06.978Z,1288
2017-09-19T10:15:06.760Z,1300
2017-09-19T10:16:06.658Z,1304
2017-09-19T10:17:07.159Z,1248
2017-09-19T10:18:06.335Z,1328
2017-09-19T10:19:06.638Z,1348
2017-09-19T10:20:06.010Z,1332
2017-09-19T10:21:06.939Z,1444
2017-09-19T10:22:06.719Z,1388
2017-09-19T10:23:06.405Z,1280
2017-09-19T10:24:06.924Z,1288
2017-09-19T10:25:06.606Z,1264
2017-09-19T10:26:05.973Z,1236
2017-09-19T10:27:06.608Z,1168
2017-09-19T10:28:06.687Z,1144
2017-09-19T10:29:06.268Z,1100
2017-09-19T10:30:05.950Z,992
2017-09-19T10:31:06.254Z,952
2017-09-19T10:32:06.255Z,884
2017-09-19T10:33:06.245Z,832
2017-09-19T10:34:06.549Z,812
2017-09-19T10:35:06.852Z,816
2017-09-19T10:36:06.018Z,852
2017-09-19T10:37:06.224Z,908
2017-09-19T10:38:06.721Z,960
2017-09-19T10:39:06.308Z,992
2017-09-19T10:40:06.514Z,1068
2017-09-19T10:41:06.515Z,1092
2017-09-19T10:42:06.509Z,1152
2017-09-19T10:43:06.189Z,1156
2017-09-19T10:44:06.494Z,1192
2017-09-19T10:45:06.594Z,1208
2017-09-19T10:46:06.270Z,1180
2017-09-19T10:47:06.166Z,1068
2017-09-19T10:48:05.848Z,1024
2017-09-19T10:49:06.465Z,1072
2017-09-19T10:50:06.465Z,1128
2017-09-19T10:51:06.653Z,1116
2017-09-19T10:52:06.859Z,1008
2017-09-19T10:53:06.230Z,900
2017-09-19T10:54:06.845Z,820
2017-09-19T10:55:06.432Z,836
2017-09-19T10:56:06.732Z,872
2017-09-19T10:57:06.109Z,1132
2017-09-19T10:58:06.102Z,1120
2017-09-19T10:59:06.196Z,1144
2017-09-19T11:00:06.501Z,1144
2017-09-19T11:01:06.495Z,1148
2017-09-19T11:02:06.083Z,1196
2017-09-19T11:03:06.387Z,1240
2017-09-19T11:04:06.169Z,1232
2017-09-19T11:05:06.170Z,1200
2017-09-19T11:06:05.742Z,1192
2017-09-19T11:07:06.047Z,1276
2017-09-19T11:08:06.360Z,1416
2017-09-19T11:09:06.037Z,1304
2017-09-19T11:10:06.031Z,1280
2017-09-19T11:11:06.129Z,1304
2017-09-19T11:12:06.745Z,1324
2017-09-19T11:13:06.015Z,1064
2017-09-19T11:14:06.008Z,1044
2017-09-19T11:15:06.416Z,1108
2017-09-19T11:16:06.407Z,1196
2017-09-19T11:17:06.091Z,1352
2017-09-19T11:18:05.985Z,1424
2017-09-19T11:19:06.296Z,1544
2017-09-19T11:20:05.977Z,1840
2017-09-19T11:21:06.380Z,1824
2017-09-19T11:22:06.591Z,1960
2017-09-19T11:23:06.371Z,1628
2017-09-19T11:24:05.955Z,1764
2017-09-19T11:25:06.260Z,1632
2017-09-19T11:26:06.042Z,1608
2017-09-19T11:27:06.039Z,1420
2017-09-19T11:28:06.560Z,1332
2017-09-19T11:29:05.614Z,1240
2017-09-19T11:30:06.247Z,1064
2017-09-19T11:31:05.918Z,876
2017-09-19T11:32:05.596Z,828
2017-09-19T11:33:05.689Z,704
2017-09-19T11:34:05.998Z,620
2017-09-19T11:35:05.891Z,564
2017-09-19T11:36:06.203Z,516
2017-09-19T11:37:06.300Z,464
2017-09-19T11:38:05.881Z,372
2017-09-19T11:39:05.867Z,304
2017-09-19T11:40:05.551Z,256
2017-09-19T11:41:05.547Z,224
2017-09-19T11:42:05.855Z,200
2017-09-19T11:43:05.849Z,196
2017-09-19T11:44:05.841Z,216
2017-09-19T11:45:05.524Z,248
2017-09-19T11:46:06.247Z,280
2017-09-19T11:47:06.171Z,332
2017-09-19T11:48:05.504Z,356
2017-09-19T11:49:05.815Z,352
2017-09-19T11:50:06.121Z,332
2017-09-19T11:51:06.109Z,316
2017-09-19T11:52:06.426Z,312
2017-09-19T11:53:05.477Z,312
2017-09-19T11:54:05.880Z,304
2017-09-19T11:55:05.780Z,304
2017-09-19T11:56:06.402Z,292
2017-09-19T11:57:06.179Z,284
2017-09-19T11:58:05.762Z,276
2017-09-19T11:59:06.066Z,284
2017-09-19T12:00:06.074Z,292
2017-09-19T12:01:05.847Z,296
2017-09-19T12:02:05.859Z,308
2017-09-19T12:03:06.370Z,324
2017-09-19T12:04:05.828Z,352
2017-09-19T12:05:06.137Z,396
2017-09-19T12:06:05.820Z,460
2017-09-19T12:07:05.400Z,548
2017-09-19T12:08:06.133Z,632
2017-09-19T12:09:06.013Z,696
2017-09-19T12:10:05.481Z,712
2017-09-19T12:11:05.689Z,712
2017-09-19T12:12:05.996Z,704
2017-09-19T12:13:06.403Z,740
2017-09-19T12:14:05.771Z,780
2017-09-19T12:15:05.662Z,844
2017-09-19T12:16:05.659Z,956
2017-09-19T12:17:05.655Z,1168
2017-09-19T12:18:05.336Z,1316
2017-09-19T12:19:05.641Z,1340
2017-09-19T12:20:05.952Z,1324
2017-09-19T12:21:05.632Z,1312
2017-09-19T12:22:05.623Z,1288
2017-09-19T12:23:06.440Z,1260
2017-09-19T12:24:05.303Z,1400
2017-09-19T12:25:06.024Z,1476
2017-09-19T12:26:05.288Z,1504
2017-09-19T12:27:05.598Z,1544
2017-09-19T12:28:05.590Z,1584
2017-09-19T12:29:06.358Z,1796
2017-09-19T12:30:05.897Z,1972
2017-09-19T12:31:05.884Z,2124
2017-09-19T12:32:05.254Z,2156
2017-09-19T12:33:05.878Z,2012
2017-09-19T12:34:06.198Z,1876
2017-09-19T12:35:05.697Z,1848
2017-09-19T12:36:05.854Z,1808
2017-09-19T12:37:05.858Z,1652
2017-09-19T12:38:05.527Z,1848
2017-09-19T12:39:05.844Z,1544
2017-09-19T12:40:05.828Z,1484
2017-09-19T12:41:05.516Z,1420
2017-09-19T12:42:06.072Z,1420
2017-09-19T12:43:06.125Z,1460
2017-09-19T12:44:05.806Z,1356
2017-09-19T12:45:05.381Z,1256
2017-09-19T12:46:05.799Z,1196
2017-09-19T12:47:05.489Z,996
2017-09-19T12:48:05.160Z,940
2017-09-19T12:49:05.467Z,900
2017-09-19T12:50:05.461Z,884
2017-09-19T12:51:05.459Z,808
2017-09-19T12:52:06.074Z,772
2017-09-19T12:53:05.760Z,712
2017-09-19T12:54:05.539Z,672
2017-09-19T12:55:05.844Z,640
2017-09-19T12:56:06.049Z,640
2017-09-19T12:57:05.521Z,644
2017-09-19T12:58:05.830Z,672
2017-09-19T12:59:06.130Z,708
2017-09-19T13:00:05.713Z,756
2017-09-19T13:01:05.708Z,800
2017-09-19T13:02:05.709Z,840
2017-09-19T13:03:05.271Z,900
2017-09-19T13:04:05.373Z,1012
2017-09-19T13:05:06.200Z,1116
2017-09-19T13:06:05.678Z,1192
2017-09-19T13:07:05.988Z,1236
2017-09-19T13:08:05.671Z,1232
2017-09-19T13:09:05.349Z,1172
2017-09-19T13:10:05.345Z,1132
2017-09-19T13:11:05.645Z,1108
2017-09-19T13:12:05.431Z,1156
2017-09-19T13:13:05.638Z,1232
2017-09-19T13:14:05.628Z,1256
2017-09-19T13:15:05.619Z,1288
2017-09-19T13:16:05.310Z,1244
2017-09-19T13:17:05.813Z,1304
2017-09-19T13:18:05.297Z,1416
2017-09-19T13:19:04.976Z,1492
2017-09-19T13:20:05.282Z,1552
2017-09-19T13:21:05.587Z,1636
2017-09-19T13:22:05.623Z,1724
2017-09-19T13:23:05.687Z,1720
2017-09-19T13:24:04.952Z,1616
2017-09-19T13:25:05.568Z,1560
2017-09-19T13:26:05.558Z,1560
2017-09-19T13:27:05.755Z,1696
2017-09-19T13:28:05.338Z,1812
2017-09-19T13:29:05.540Z,1752
2017-09-19T13:30:05.228Z,1540
2017-09-19T13:31:05.216Z,1204
2017-09-19T13:32:05.219Z,984
2017-09-19T13:33:05.623Z,936
2017-09-19T13:34:04.991Z,920
2017-09-19T13:35:05.198Z,856
2017-09-19T13:36:04.879Z,792
2017-09-19T13:37:05.496Z,740
2017-09-19T13:38:05.190Z,708
2017-09-19T13:39:05.378Z,692
2017-09-19T13:40:05.480Z,696
2017-09-19T13:41:05.160Z,732
2017-09-19T13:42:05.157Z,772
2017-09-19T13:43:05.455Z,804
2017-09-19T13:44:05.243Z,872
2017-09-19T13:45:04.825Z,904
2017-09-19T13:46:05.131Z,900
2017-09-19T13:47:05.133Z,908
2017-09-19T13:48:05.447Z,908
2017-09-19T13:49:05.840Z,884
2017-09-19T13:50:05.208Z,800
2017-09-19T13:51:05.744Z,712
2017-09-19T13:52:05.113Z,680
2017-09-19T13:53:05.405Z,680
2017-09-19T13:54:05.088Z,616
2017-09-19T13:55:04.969Z,528
2017-09-19T13:56:05.075Z,528
2017-09-19T13:57:05.071Z,544
2017-09-19T13:58:05.377Z,488
2017-09-19T13:59:05.376Z,460
2017-09-19T14:00:05.360Z,468
2017-09-19T14:01:05.355Z,512
2017-09-19T14:02:05.666Z,584
2017-09-19T14:03:05.663Z,628